Time;durP1;ratioP1;P1;durP2;ratioP2;P2;SDS_P1;SDS_P2;PMS_P1;PMS_P2;Temp;Humidity;BMP_temperature;BMP_pressure;BME280_temperature;BME280_humidity;BME280_pressure;Samples;Min_cycle;Max_cycle;Signal;HPM_P1;HPM_P2
2022/11/17 00:01:47;;;;;;;4.72;2.88;;;;;;;9.41;100.00;98302.69;6192517;28;20039;-74
2022/11/17 00:04:48;;;;;;;5.68;3.85;;;;;;;9.31;100.00;98307.00;6195642;28;20042;-74
2022/11/17 00:07:49;;;;;;;9.10;4.18;;;;;;;9.40;100.00;98306.25;6197760;28;20406;-74
2022/11/17 00:10:49;;;;;;;7.03;3.50;;;;;;;9.28;100.00;98305.50;6197700;28;20050;-73
2022/11/17 00:17:11;;;;;;;5.00;3.15;;;;;;;9.18;100.00;98292.44;6221977;28;20045;-73
2022/11/17 00:23:46;;;;;;;4.40;2.85;;;;;;;9.24;100.00;98286.69;6221874;28;20077;-73
2022/11/17 00:27:02;;;;;;;4.82;3.13;;;;;;;9.13;100.00;98283.34;6221714;28;20045;-73
2022/11/17 00:30:03;;;;;;;4.13;2.92;;;;;;;9.05;100.00;98291.78;6220339;28;20049;-73
2022/11/17 00:36:24;;;;;;;4.07;3.00;;;;;;;8.84;100.00;98292.59;6221556;28;20068;-73
2022/11/17 00:39:25;;;;;;;4.53;3.20;;;;;;;9.02;100.00;98292.06;6220293;28;20038;-73
2022/11/17 00:42:26;;;;;;;3.17;2.58;;;;;;;9.02;100.00;98286.84;6220199;28;20057;-73
2022/11/17 00:45:26;;;;;;;4.05;3.05;;;;;;;8.93;100.00;98272.81;6213147;28;20099;-73
2022/11/17 00:48:27;;;;;;;5.10;3.17;;;;;;;8.90;100.00;98272.25;6196932;28;20047;-73
2022/11/17 00:51:29;;;;;;;7.00;3.47;;;;;;;8.80;100.00;98277.38;6196965;28;20049;-73
2022/11/17 00:54:29;;;;;;;7.32;4.13;;;;;;;8.91;100.00;98282.53;6196637;28;20529;-73
2022/11/17 00:57:30;;;;;;;4.60;3.30;;;;;;;8.86;100.00;98279.47;6281143;28;20133;-73
2022/11/17 01:00:31;;;;;;;4.65;2.97;;;;;;;8.88;100.00;98280.19;6195417;28;20042;-73
2022/11/17 01:03:36;;;;;;;5.28;3.00;;;;;;;8.84;100.00;98281.38;6195604;28;20074;-74
2022/11/17 01:06:43;;;;;;;5.28;3.58;;;;;;;8.76;100.00;98270.78;6196746;28;20049;-73
2022/11/17 01:09:44;;;;;;;4.95;3.67;;;;;;;8.88;100.00;98274.97;6196752;28;20042;-74
2022/11/17 01:12:44;;;;;;;3.92;2.88;;;;;;;8.83;100.00;98274.53;6196540;28;20134;-74
2022/11/17 01:15:45;;;;;;;5.65;2.95;;;;;;;8.78;100.00;98266.28;6195475;28;20048;-74
2022/11/17 01:18:47;;;;;;;3.90;2.70;;;;;;;8.84;100.00;98257.97;6179161;28;20061;-74
2022/11/17 01:21:48;;;;;;;4.43;2.40;;;;;;;8.77;100.00;98256.81;6196456;28;20536;-74
2022/11/17 01:24:48;;;;;;;5.35;2.40;;;;;;;8.81;100.00;98250.41;6196869;28;20046;-73
2022/11/17 01:27:49;;;;;;;4.85;2.50;;;;;;;8.68;100.00;98243.63;6196331;28;20391;-74
2022/11/17 01:30:58;;;;;;;4.68;2.40;;;;;;;8.61;100.00;98245.09;6178839;28;20058;-74
2022/11/17 01:33:59;;;;;;;3.72;2.50;;;;;;;8.76;100.00;98242.19;6280207;28;20042;-74
2022/11/17 01:37:18;;;;;;;3.90;2.67;;;;;;;8.63;100.00;98231.97;6280549;28;20051;-74
2022/11/17 01:40:19;;;;;;;2.45;1.73;;;;;;;8.65;100.00;98236.09;6194802;28;20070;-74
2022/11/17 01:43:43;;;;;;;4.60;2.60;;;;;;;8.61;100.00;98233.88;6195903;28;20513;-74
2022/11/17 01:46:45;;;;;;;3.45;2.35;;;;;;;8.64;100.00;98226.63;6195968;28;20054;-74
2022/11/17 01:49:48;;;;;;;2.78;2.17;;;;;;;8.64;100.00;98212.81;6297025;28;20169;-73
2022/11/17 01:52:55;;;;;;;3.67;2.33;;;;;;;8.70;100.00;98219.28;6194555;28;20091;-73
2022/11/17 01:56:04;;;;;;;2.47;1.92;;;;;;;8.65;100.00;98225.69;6195689;28;20050;-74
2022/11/17 01:59:12;;;;;;;2.95;2.22;;;;;;;8.74;100.00;98213.69;6195809;28;20042;-74
2022/11/17 02:02:13;;;;;;;2.55;1.98;;;;;;;8.74;100.00;98203.28;6194618;28;20133;-73
2022/11/17 02:05:41;;;;;;;2.55;1.77;;;;;;;8.64;100.00;98215.41;6195667;28;20039;-74
2022/11/17 02:08:44;;;;;;;1.98;1.58;;;;;;;8.76;100.00;98208.38;6195535;28;20442;-74
2022/11/17 02:11:47;;;;;;;2.97;2.38;;;;;;;8.71;100.00;98210.53;6194266;28;20047;-73
2022/11/17 02:14:51;;;;;;;3.03;2.10;;;;;;;8.68;100.00;98212.41;6195484;28;20038;-73
2022/11/17 02:17:53;;;;;;;3.65;2.55;;;;;;;8.62;100.00;98217.31;6195366;28;20046;-74
2022/11/17 02:21:20;;;;;;;5.03;3.28;;;;;;;8.72;100.00;98215.59;6195300;28;20046;-74
2022/11/17 02:24:32;;;;;;;2.50;1.98;;;;;;;8.68;100.00;98206.41;6194161;28;20053;-74
2022/11/17 02:27:42;;;;;;;2.65;1.85;;;;;;;8.61;100.00;98211.28;6193715;28;20487;-74
2022/11/17 02:30:49;;;;;;;2.38;1.80;;;;;;;8.70;100.00;98212.31;6194069;28;20038;-74
2022/11/17 02:34:10;;;;;;;1.80;1.63;;;;;;;8.71;100.00;98213.97;6194946;28;20375;-74
2022/11/17 02:37:28;;;;;;;2.65;2.08;;;;;;;8.68;100.00;98212.41;6195159;28;20589;-74
2022/11/17 02:40:36;;;;;;;3.45;2.00;;;;;;;8.57;100.00;98212.50;6194956;28;20053;-74
2022/11/17 02:47:08;;;;;;;3.85;1.98;;;;;;;8.61;100.00;98202.69;6194808;28;20038;-74
2022/11/17 02:50:11;;;;;;;3.25;2.33;;;;;;;8.47;100.00;98214.19;6193670;28;20039;-74
2022/11/17 02:53:12;;;;;;;;;;;;;;;8.50;100.00;98218.31;6193683;28;20100;-74
2022/11/17 02:56:16;;;;;;;2.25;1.58;;;;;;;8.56;100.00;98223.00;6194588;28;20156;-74
2022/11/17 02:59:22;;;;;;;2.28;1.83;;;;;;;8.58;100.00;98219.31;6193326;28;20107;-73
2022/11/17 03:02:57;;;;;;;2.55;2.20;;;;;;;8.65;100.00;98222.28;6193276;28;20154;-74
2022/11/17 03:06:26;;;;;;;2.97;2.08;;;;;;;8.58;100.00;98224.53;6194606;28;20482;-74
2022/11/17 03:10:05;;;;;;;3.58;2.70;;;;;;;8.47;100.00;98225.41;6194567;28;20544;-74
2022/11/17 03:13:32;;;;;;;4.30;2.60;;;;;;;8.46;100.00;98226.38;6194401;28;20443;-74
2022/11/17 03:16:44;;;;;;;3.65;2.45;;;;;;;8.54;100.00;98224.91;6193317;28;20365;-74
2022/11/17 03:20:08;;;;;;;;;;;;;;;8.54;100.00;98228.31;6194955;28;20121;-73
2022/11/17 03:23:12;;;;;;;3.47;2.70;;;;;;;8.41;100.00;98223.31;6212055;28;19922;-74
2022/11/17 03:26:19;;;;;;;5.03;2.83;;;;;;;8.24;100.00;98211.66;6194255;28;20043;-73
2022/11/17 03:29:24;;;;;;;3.80;2.80;;;;;;;8.41;100.00;98215.50;6193155;28;20054;-74
2022/11/17 03:32:29;;;;;;;6.53;3.22;;;;;;;8.42;100.00;98198.13;6192792;28;20448;-73
2022/11/17 03:35:35;;;;;;;12.88;3.10;;;;;;;8.39;100.00;98191.38;6194111;28;20042;-74
2022/11/17 03:38:39;;;;;;;5.70;3.17;;;;;;;8.33;100.00;98191.06;6195461;28;20077;-74
2022/11/17 03:41:44;;;;;;;7.10;3.15;;;;;;;8.35;100.00;98196.97;6198287;28;20044;-74
2022/11/17 03:44:49;;;;;;;7.53;4.50;;;;;;;8.50;100.00;98205.31;6198146;28;20042;-74
2022/11/17 03:47:58;;;;;;;8.85;4.75;;;;;;;8.45;100.00;98203.09;6197027;28;20034;-74
2022/11/17 03:51:19;;;;;;;6.80;3.63;;;;;;;8.52;100.00;98204.22;6197072;28;20531;-75
2022/11/17 03:54:21;;;;;;;5.47;3.72;;;;;;;8.40;100.00;98213.00;6197783;28;20051;-74
2022/11/17 03:57:53;;;;;;;9.23;4.53;;;;;;;8.25;100.00;98217.66;6196910;28;20045;-74
2022/11/17 04:01:01;;;;;;;5.85;3.78;;;;;;;8.42;100.00;98222.38;6196913;28;20043;-74
2022/11/17 04:04:02;;;;;;;5.53;3.72;;;;;;;8.30;100.00;98209.50;6196726;28;20049;-74
2022/11/17 04:07:02;;;;;;;8.77;4.20;;;;;;;8.38;100.00;98217.50;6196788;28;20043;-75
2022/11/17 04:10:07;;;;;;;5.95;3.75;;;;;;;8.37;100.00;98215.88;6197862;28;20043;-74
2022/11/17 04:16:34;;;;;;;4.63;3.47;;;;;;;8.28;100.00;98225.22;6197716;28;20053;-74
2022/11/17 04:19:34;;;;;;;5.57;3.78;;;;;;;8.41;100.00;98238.09;6196553;28;20038;-74
2022/11/17 04:22:35;;;;;;;6.00;4.68;;;;;;;8.38;100.00;98248.69;6196368;28;20097;-74
2022/11/17 04:29:00;;;;;;;4.95;3.63;;;;;;;8.46;100.00;98247.16;6197467;28;20045;-74
2022/11/17 04:32:01;;;;;;;5.95;4.00;;;;;;;8.33;100.00;98254.25;6298807;28;20046;-74
2022/11/17 04:35:02;;;;;;;5.70;3.72;;;;;;;8.42;100.00;98265.72;6197253;28;20049;-75
2022/11/17 04:38:03;;;;;;;7.65;3.95;;;;;;;8.43;100.00;98256.97;6196169;28;20426;-74
2022/11/17 04:44:27;;;;;;;7.13;4.68;;;;;;;8.21;100.00;98255.25;6197165;28;20060;-74
2022/11/17 04:47:28;;;;;;;6.88;4.30;;;;;;;8.19;100.00;98250.16;6197067;28;20117;-74
2022/11/17 04:50:29;;;;;;;8.80;4.57;;;;;;;8.34;100.00;98255.06;6195868;28;20076;-74
2022/11/17 04:53:29;;;;;;;7.40;4.35;;;;;;;8.45;100.00;98257.69;6195808;28;20129;-74
2022/11/17 04:56:30;;;;;;;9.20;4.60;;;;;;;8.42;100.00;98243.16;6195540;28;20082;-74
2022/11/17 04:59:31;;;;;;;9.55;4.65;;;;;;;8.19;100.00;98244.97;6195660;28;20052;-74
2022/11/17 05:02:31;;;;;;;20.45;10.52;;;;;;;8.28;100.00;98236.44;6195662;28;20087;-73
2022/11/17 05:05:32;;;;;;;7.43;4.30;;;;;;;8.19;100.00;98236.34;6179296;28;20533;-74
2022/11/17 05:08:36;;;;;;;8.23;4.70;;;;;;;8.15;100.00;98251.34;6195548;28;20043;-74
2022/11/17 05:14:56;;;;;;;6.30;3.88;;;;;;;8.38;100.00;98257.31;6196632;28;20096;-73
2022/11/17 05:17:57;;;;;;;8.38;4.85;;;;;;;8.27;100.00;98260.75;6195418;28;20129;-74
2022/11/17 05:21:05;;;;;;;10.35;4.53;;;;;;;8.29;100.00;98258.06;6183677;28;20141;-74
2022/11/17 05:24:07;;;;;;;8.27;4.65;;;;;;;8.25;100.00;98265.25;6219482;28;20053;-74
2022/11/17 05:27:07;;;;;;;12.93;5.63;;;;;;;8.20;100.00;98256.19;6220655;28;20114;-74
2022/11/17 05:30:09;;;;;;;12.25;5.85;;;;;;;8.11;100.00;98255.13;6219510;28;20042;-74
2022/11/17 05:33:10;;;;;;;10.18;6.18;;;;;;;8.20;100.00;98264.00;6220867;28;20062;-73
2022/11/17 05:36:11;;;;;;;12.32;6.22;;;;;;;8.23;100.00;98261.97;6212032;28;20470;-74
2022/11/17 05:39:12;;;;;;;10.17;5.37;;;;;;;8.18;100.00;98255.50;6198829;28;20054;-75
2022/11/17 05:42:13;;;;;;;11.25;6.32;;;;;;;8.35;100.00;98259.34;6219194;28;20629;-75
2022/11/17 05:45:14;;;;;;;18.88;6.55;;;;;;;8.10;100.00;98261.28;6208097;28;20042;-74
2022/11/17 05:48:15;;;;;;;14.32;5.78;;;;;;;8.20;100.00;98256.19;6194896;28;20046;-74
2022/11/17 05:51:21;;;;;;;18.60;7.68;;;;;;;8.07;100.00;98266.72;6196069;28;20046;-72
2022/11/17 05:54:22;;;;;;;10.30;6.28;;;;;;;8.15;100.00;98274.72;6318163;27;20087;-72
2022/11/17 05:57:30;;;;;;;20.10;9.13;;;;;;;8.12;100.00;98284.56;6178329;28;20058;-72
2022/11/17 06:00:35;;;;;;;15.95;6.03;;;;;;;8.00;100.00;98292.34;6193880;28;20069;-73
2022/11/17 06:03:40;;;;;;;17.17;8.27;;;;;;;8.03;100.00;98302.53;6194175;28;20046;-72
2022/11/17 06:06:41;;;;;;;15.38;6.30;;;;;;;7.97;100.00;98307.34;6195568;28;20042;-72
2022/11/17 06:09:42;;;;;;;5.35;3.33;;;;;;;7.95;100.00;98314.44;6296219;28;20126;-73
2022/11/17 06:12:42;;;;;;;7.00;3.67;;;;;;;7.83;100.00;98318.81;6194204;28;20047;-72
2022/11/17 06:15:43;;;;;;;7.47;3.47;;;;;;;7.81;100.00;98303.34;6195293;28;20054;-73
2022/11/17 06:18:51;;;;;;;6.75;3.42;;;;;;;7.82;100.00;98317.16;6296236;28;20042;-72
2022/11/17 06:21:52;;;;;;;6.30;2.72;;;;;;;7.80;100.00;98319.91;6177799;28;20054;-72
2022/11/17 06:24:53;;;;;;;8.98;3.17;;;;;;;7.64;100.00;98330.63;6193944;28;20100;-72
2022/11/17 06:27:56;;;;;;;6.07;3.63;;;;;;;7.74;100.00;98335.94;6279023;28;20057;-72
2022/11/17 06:30:58;;;;;;;8.57;3.88;;;;;;;7.86;100.00;98341.94;6296384;28;20435;-74
2022/11/17 06:34:01;;;;;;;10.20;4.75;;;;;;;7.92;100.00;98340.66;6195002;28;20677;-73
2022/11/17 06:37:02;;;;;;;5.25;3.50;;;;;;;7.94;100.00;98344.78;6195255;28;20076;-74
2022/11/17 06:40:03;;;;;;;12.00;6.85;;;;;;;7.91;100.00;98352.81;6278901;28;20050;-72
2022/11/17 06:43:07;;;;;;;6.50;3.40;;;;;;;7.76;100.00;98349.63;6194917;28;20053;-72
2022/11/17 06:46:08;;;;;;;6.40;3.75;;;;;;;7.80;100.00;98345.00;6194883;28;20050;-72
2022/11/17 06:49:08;;;;;;;2.50;1.70;;;;;;;7.94;100.00;98356.94;6194917;28;20122;-72
2022/11/17 06:52:10;;;;;;;3.55;2.30;;;;;;;7.59;100.00;98360.47;6194738;28;20422;-72
2022/11/17 06:55:11;;;;;;;8.68;3.72;;;;;;;7.57;100.00;98363.16;6278233;28;20494;-72
2022/11/17 06:58:11;;;;;;;4.85;2.85;;;;;;;7.43;100.00;98364.22;6193441;28;20061;-72
2022/11/17 07:01:14;;;;;;;3.03;2.10;;;;;;;7.52;100.00;98365.28;6193396;28;20114;-73
2022/11/17 07:04:14;;;;;;;10.43;3.70;;;;;;;7.49;100.00;98373.28;6193206;28;20057;-73
2022/11/17 07:07:15;;;;;;;3.20;1.33;;;;;;;7.28;100.00;98367.94;6194483;28;20070;-74
2022/11/17 07:10:16;;;;;;;7.07;2.83;;;;;;;7.41;100.00;98370.44;6193440;28;20042;-74
2022/11/17 07:13:17;;;;;;;4.90;2.50;;;;;;;7.09;100.00;98365.88;6192339;28;20168;-74
2022/11/17 07:16:20;;;;;;;2.60;1.02;;;;;;;7.10;100.00;98377.91;6177018;28;20061;-74
2022/11/17 07:19:21;;;;;;;1.65;1.20;;;;;;;7.11;100.00;98387.34;6193293;28;20125;-74
2022/11/17 07:22:22;;;;;;;1.88;1.13;;;;;;;7.23;100.00;98383.03;6194288;28;20045;-75
2022/11/17 07:25:23;;;;;;;1.60;1.30;;;;;;;7.25;100.00;98381.97;6193147;28;20043;-72
2022/11/17 07:28:24;;;;;;;7.82;3.03;;;;;;;7.26;100.00;98390.59;6176741;28;20445;-72
2022/11/17 07:31:25;;;;;;;3.80;1.83;;;;;;;7.17;100.00;98396.47;6278324;28;20062;-73
2022/11/17 07:34:28;;;;;;;1.85;1.40;;;;;;;7.29;100.00;98395.56;6192731;28;20047;-72
2022/11/17 07:37:32;;;;;;;3.17;1.50;;;;;;;7.17;100.00;98399.88;6192772;28;20441;-73
2022/11/17 07:40:32;;;;;;;3.95;1.42;;;;;;;7.23;100.00;98404.63;6192869;28;20050;-73
2022/11/17 07:43:34;;;;;;;2.10;1.33;;;;;;;7.21;100.00;98403.91;6192600;28;20050;-74
2022/11/17 07:46:34;;;;;;;1.58;1.23;;;;;;;7.19;100.00;98407.56;6278010;28;20481;-74
2022/11/17 07:49:35;;;;;;;1.35;1.05;;;;;;;7.14;100.00;98414.81;6192462;28;20058;-73
2022/11/17 07:52:36;;;;;;;3.45;1.55;;;;;;;7.11;100.00;98412.47;6192642;28;20078;-75
2022/11/17 07:55:36;;;;;;;2.78;1.15;;;;;;;7.17;100.00;98415.44;6193408;28;20525;-74
2022/11/17 07:58:38;;;;;;;4.25;1.48;;;;;;;7.38;100.00;98413.03;6193790;28;20410;-72
2022/11/17 08:01:39;;;;;;;1.48;0.98;;;;;;;7.37;100.00;98419.16;6192444;28;20047;-72
2022/11/17 08:04:39;;;;;;;0.65;0.60;;;;;;;7.47;100.00;98412.38;6193557;28;20395;-72
2022/11/17 08:07:40;;;;;;;1.20;0.80;;;;;;;7.57;100.00;98415.06;6193459;28;20046;-72
2022/11/17 08:10:44;;;;;;;0.73;0.63;;;;;;;7.57;100.00;98420.25;6192349;28;20042;-74
2022/11/17 08:13:45;;;;;;;0.90;0.77;;;;;;;7.54;100.00;98414.50;6193407;28;20070;-73
2022/11/17 08:16:46;;;;;;;0.93;0.77;;;;;;;7.54;100.00;98415.31;6192247;28;20405;-73
2022/11/17 08:19:46;;;;;;;1.25;1.02;;;;;;;7.64;100.00;98415.47;6175935;28;20054;-74
2022/11/17 08:22:51;;;;;;;2.28;1.38;;;;;;;7.70;100.00;98419.34;6192210;28;20542;-74
2022/11/17 08:25:52;;;;;;;3.40;1.38;;;;;;;7.94;100.00;98419.28;6196423;28;20077;-74
2022/11/17 08:28:53;;;;;;;3.25;1.27;;;;;;;8.09;100.00;98415.50;6196060;28;20054;-74
2022/11/17 08:31:53;;;;;;;6.25;1.80;;;;;;;7.96;100.00;98425.19;6196207;28;20052;-73
2022/11/17 08:34:54;;;;;;;3.45;1.75;;;;;;;8.14;100.00;98431.56;6195950;28;20080;-72
2022/11/17 08:37:55;;;;;;;3.55;1.33;;;;;;;8.15;100.00;98441.00;6197274;28;20125;-73
2022/11/17 08:41:06;;;;;;;3.17;1.40;;;;;;;8.09;100.00;98441.47;6195903;28;20069;-74
2022/11/17 08:44:07;;;;;;;2.15;1.30;;;;;;;8.28;100.00;98448.69;6281727;28;20053;-74
2022/11/17 08:47:08;;;;;;;1.13;0.95;;;;;;;8.23;100.00;98462.03;6197018;28;20414;-74
2022/11/17 08:50:08;;;;;;;3.15;1.85;;;;;;;8.12;100.00;98469.81;6196087;28;20394;-74
2022/11/17 08:53:14;;;;;;;2.40;1.27;;;;;;;8.15;100.00;98474.78;6195708;28;20050;-73
2022/11/17 08:56:15;;;;;;;2.58;1.40;;;;;;;8.41;100.00;98474.59;6195513;28;20085;-72
2022/11/17 08:59:16;;;;;;;3.72;2.30;;;;;;;8.33;100.00;98475.16;6195716;28;20042;-72
2022/11/17 09:02:16;;;;;;;2.78;1.52;;;;;;;8.47;100.00;98474.13;6281371;28;20498;-74
2022/11/17 09:05:17;;;;;;;1.50;1.27;;;;;;;8.60;100.00;98481.78;6196893;28;20406;-74
2022/11/17 09:08:18;;;;;;;3.03;1.92;;;;;;;8.55;100.00;98483.94;6195622;28;20069;-74
2022/11/17 09:11:19;;;;;;;3.60;2.08;;;;;;;8.59;100.00;98491.38;6195636;28;20091;-74
2022/11/17 09:14:20;;;;;;;5.45;1.77;;;;;;;8.40;100.00;98489.34;6195413;28;20045;-74
2022/11/17 09:17:21;;;;;;;4.70;1.77;;;;;;;8.55;100.00;98489.13;6179227;28;20050;-74
2022/11/17 09:20:22;;;;;;;3.85;1.55;;;;;;;8.52;100.00;98494.56;6179169;28;20046;-74
2022/11/17 09:23:23;;;;;;;1.80;1.25;;;;;;;8.50;100.00;98505.06;6194379;28;20152;-74
2022/11/17 09:26:26;;;;;;;2.83;1.35;;;;;;;8.72;100.00;98501.63;6194008;28;20043;-72
2022/11/17 09:29:28;;;;;;;2.00;1.60;;;;;;;8.57;100.00;98500.25;6195134;28;20178;-74
2022/11/17 09:32:29;;;;;;;3.78;1.55;;;;;;;8.77;100.00;98514.28;6280313;28;20057;-74
2022/11/17 09:35:30;;;;;;;4.00;1.73;;;;;;;8.67;100.00;98511.59;6194090;28;20046;-74
2022/11/17 09:38:30;;;;;;;1.75;1.23;;;;;;;8.77;100.00;98517.72;6195952;28;20042;-74
2022/11/17 09:42:03;;;;;;;2.15;1.30;;;;;;;8.78;100.00;98513.34;6194937;28;20129;-74
2022/11/17 09:45:24;;;;;;;1.67;1.20;;;;;;;9.01;100.00;98512.34;6229017;28;20085;-74
2022/11/17 09:48:52;;;;;;;2.85;1.67;;;;;;;9.08;100.00;98512.72;6194960;28;20049;-74
2022/11/17 09:51:59;;;;;;;1.67;1.50;;;;;;;8.86;100.00;98514.38;6178381;28;20046;-74
2022/11/17 09:55:11;;;;;;;2.72;1.02;;;;;;;8.75;100.00;98518.75;6194410;28;20145;-74
2022/11/17 09:58:33;;;;;;;1.70;1.38;;;;;;;8.75;100.00;98530.03;6178073;28;20046;-73
2022/11/17 10:01:37;;;;;;;1.33;0.93;;;;;;;8.61;100.00;98515.47;6194479;28;20046;-75
2022/11/17 10:04:37;;;;;;;3.38;1.30;;;;;;;8.81;100.00;98524.34;6194264;28;20046;-74
2022/11/17 10:07:44;;;;;;;2.53;1.80;;;;;;;8.83;100.00;98524.19;6195552;28;20049;-75
2022/11/17 10:10:47;;;;;;;2.20;1.83;;;;;;;8.90;100.00;98520.19;6195510;28;20062;-74
2022/11/17 10:13:49;;;;;;;1.83;1.30;;;;;;;8.89;100.00;98523.72;6195336;28;20084;-72
2022/11/17 10:16:53;;;;;;;2.35;1.15;;;;;;;8.68;100.00;98521.84;6193857;28;20252;-73
2022/11/17 10:19:54;;;;;;;1.38;1.10;;;;;;;8.64;100.00;98527.41;6194034;28;20046;-72
2022/11/17 10:22:57;;;;;;;1.80;1.23;;;;;;;8.99;100.00;98529.03;6194008;28;20057;-72
2022/11/17 10:25:58;;;;;;;2.15;1.58;;;;;;;8.94;100.00;98529.41;6193948;28;20050;-72
2022/11/17 10:29:10;;;;;;;1.65;1.10;;;;;;;8.98;100.00;98541.22;6193772;28;20127;-73
2022/11/17 10:32:14;;;;;;;2.23;1.63;;;;;;;9.14;100.00;98542.59;6193780;28;20510;-72
2022/11/17 10:35:22;;;;;;;1.52;1.40;;;;;;;9.16;100.00;98531.16;6177550;28;20050;-72
2022/11/17 10:38:27;;;;;;;2.80;1.77;;;;;;;9.18;100.00;98537.06;6194815;28;20048;-72
2022/11/17 10:41:37;;;;;;;5.93;2.20;;;;;;;9.17;100.00;98537.16;6193746;28;20042;-72
2022/11/17 10:44:42;;;;;;;5.38;2.38;;;;;;;9.07;100.00;98537.06;6193603;28;20062;-72
2022/11/17 10:47:43;;;;;;;7.30;2.92;;;;;;;9.17;100.00;98519.78;6194380;28;20513;-73
2022/11/17 10:51:09;;;;;;;5.53;2.20;;;;;;;9.28;100.00;98537.94;6194636;28;20034;-72
2022/11/17 10:54:16;;;;;;;3.40;2.03;;;;;;;9.32;100.00;98533.34;6193245;28;20053;-72
2022/11/17 10:57:21;;;;;;;2.83;2.30;;;;;;;9.35;100.00;98530.50;6193192;28;20054;-72
2022/11/17 11:00:27;;;;;;;4.32;1.58;;;;;;;9.26;100.00;98537.25;6193207;28;20137;-72
2022/11/17 11:03:34;;;;;;;2.40;1.40;;;;;;;9.20;100.00;98545.53;6194447;28;20129;-72
2022/11/17 11:06:35;;;;;;;2.42;1.60;;;;;;;9.22;100.00;98543.63;6193205;28;20191;-72
2022/11/17 11:09:44;;;;;;;1.80;1.13;;;;;;;9.32;100.00;98542.91;6194286;28;20105;-72
2022/11/17 11:13:12;;;;;;;1.92;1.40;;;;;;;9.18;100.00;98542.25;6193059;28;20482;-72
2022/11/17 11:16:15;;;;;;;1.30;1.13;;;;;;;9.25;100.00;98545.19;6194220;28;20103;-72
2022/11/17 11:19:18;;;;;;;2.53;1.75;;;;;;;9.10;100.00;98543.78;6193040;28;20049;-74
2022/11/17 11:22:26;;;;;;;3.45;2.30;;;;;;;9.04;100.00;98547.72;6193157;28;20406;-74
2022/11/17 11:25:39;;;;;;;3.22;1.83;;;;;;;9.08;100.00;98539.56;6194170;28;20121;-73
2022/11/17 11:29:03;;;;;;;1.90;1.65;;;;;;;8.72;100.00;98537.22;6194084;28;20069;-74
2022/11/17 11:32:28;;;;;;;3.47;2.00;;;;;;;8.83;100.00;98550.19;6194231;28;20043;-74
2022/11/17 11:35:55;;;;;;;2.67;1.95;;;;;;;8.93;100.00;98545.13;6192951;28;20042;-74
2022/11/17 11:39:12;;;;;;;14.93;3.25;;;;;;;8.85;100.00;98551.75;6192625;28;20065;-74
2022/11/17 11:42:18;;;;;;;4.57;2.47;;;;;;;8.83;100.00;98556.25;6277994;28;20141;-74
2022/11/17 11:45:34;;;;;;;7.43;2.50;;;;;;;8.96;100.00;98550.91;6196816;28;20053;-75
2022/11/17 11:48:38;;;;;;;2.55;1.98;;;;;;;9.01;100.00;98551.38;6191240;28;20549;-74
2022/11/17 11:51:42;;;;;;;6.72;2.92;;;;;;;9.05;100.00;98552.78;6193174;28;20046;-74
2022/11/17 11:54:53;;;;;;;19.30;9.18;;;;;;;9.15;100.00;98560.69;6192479;28;20084;-74
2022/11/17 11:57:58;;;;;;;16.20;9.65;;;;;;;9.14;100.00;98555.59;6278087;28;20058;-74
2022/11/17 12:01:05;;;;;;;23.08;10.98;;;;;;;9.10;100.00;98560.25;6195650;28;20089;-74
2022/11/17 12:04:34;;;;;;;12.73;6.90;;;;;;;9.10;100.00;98570.66;6197060;28;20050;-74
2022/11/17 12:07:43;;;;;;;10.63;6.38;;;;;;;9.14;100.00;98566.03;6180514;28;20050;-74
2022/11/17 12:10:48;;;;;;;15.45;8.05;;;;;;;9.22;100.00;98589.66;6197994;28;20513;-74
2022/11/17 12:13:49;;;;;;;6.78;3.30;;;;;;;9.26;100.00;98585.88;6196374;28;20403;-74
2022/11/17 12:17:25;;;;;;;4.57;2.73;;;;;;;9.28;100.00;98584.78;6196548;28;20085;-74
2022/11/17 12:20:40;;;;;;;2.33;1.70;;;;;;;9.41;100.00;98592.47;6197743;28;20284;-74
2022/11/17 12:24:05;;;;;;;8.30;1.90;;;;;;;9.40;100.00;98590.81;6282394;28;20061;-74
2022/11/17 12:27:43;;;;;;;6.95;2.72;;;;;;;9.43;100.00;98582.78;6196576;28;20066;-72
2022/11/17 12:30:44;;;;;;;3.55;2.42;;;;;;;9.55;100.00;98582.72;6282080;28;20054;-74
2022/11/17 12:33:50;;;;;;;5.47;3.05;;;;;;;9.57;100.00;98581.66;6281910;28;20077;-72
2022/11/17 12:37:13;;;;;;;7.82;4.15;;;;;;;9.52;100.00;98591.63;6197411;28;20042;-73
2022/11/17 12:40:33;;;;;;;;;;;;;;;9.42;100.00;98595.91;6196746;28;20042;-74
2022/11/17 12:43:33;;;;;;;16.58;8.10;;;;;;;9.45;100.00;98595.66;6281390;28;19974;-73
2022/11/17 12:46:35;;;;;;;13.95;6.97;;;;;;;9.40;100.00;98595.19;6281824;28;20387;-74
2022/11/17 12:49:54;;;;;;;8.27;4.60;;;;;;;9.50;100.00;98601.34;6195993;28;20050;-74
2022/11/17 12:53:18;;;;;;;5.38;2.38;;;;;;;9.42;100.00;98591.53;6197184;28;20148;-74
2022/11/17 12:56:35;;;;;;;2.38;1.90;;;;;;;9.43;100.00;98582.78;6195923;28;20073;-73
2022/11/17 13:00:04;;;;;;;1.88;1.70;;;;;;;9.47;100.00;98586.78;6197047;28;20133;-74
2022/11/17 13:03:14;;;;;;;2.75;2.05;;;;;;;9.61;100.00;98590.88;6197074;28;20070;-74
2022/11/17 13:06:15;;;;;;;8.10;2.25;;;;;;;9.72;100.00;98591.78;6179476;28;20070;-72
2022/11/17 13:09:24;;;;;;;1.90;1.50;;;;;;;9.64;100.00;98590.63;6195487;28;20043;-72
2022/11/17 13:12:28;;;;;;;4.28;2.65;;;;;;;9.56;100.00;98584.41;6195248;28;20076;-72
2022/11/17 13:15:29;;;;;;;5.80;3.38;;;;;;;9.48;100.00;98592.81;6195494;28;20046;-72
2022/11/17 13:18:35;;;;;;;3.80;2.65;;;;;;;9.37;100.00;98598.03;6195154;28;20114;-72
2022/11/17 13:21:36;;;;;;;5.18;2.55;;;;;;;9.39;100.00;98601.34;6196457;28;20731;-75
2022/11/17 13:24:38;;;;;;;5.30;2.58;;;;;;;9.46;100.00;98605.94;6280678;28;20043;-74
2022/11/17 13:27:43;;;;;;;4.20;2.88;;;;;;;9.54;100.00;98605.34;6196399;28;20077;-72
2022/11/17 13:30:45;;;;;;;3.40;2.53;;;;;;;9.64;100.00;98613.25;6178657;28;20425;-72
2022/11/17 13:34:05;;;;;;;2.33;1.80;;;;;;;9.58;100.00;98624.16;6280294;28;20046;-72
2022/11/17 13:37:16;;;;;;;1.10;1.02;;;;;;;9.54;100.00;98634.00;6280218;28;20497;-72
2022/11/17 13:40:20;;;;;;;1.95;1.20;;;;;;;9.25;100.00;98629.31;6280215;28;20515;-72
2022/11/17 13:43:23;;;;;;;1.35;1.02;;;;;;;9.22;100.00;98632.13;6194937;28;20376;-74
2022/11/17 13:46:24;;;;;;;2.65;1.45;;;;;;;9.30;100.00;98635.91;6194943;28;20478;-74
2022/11/17 13:49:33;;;;;;;1.80;1.30;;;;;;;9.26;100.00;98641.34;6297047;28;20039;-72
2022/11/17 13:52:36;;;;;;;6.70;3.58;;;;;;;8.97;100.00;98641.00;6194575;28;20042;-72
2022/11/17 13:55:43;;;;;;;7.55;4.80;;;;;;;8.92;100.00;98657.94;6178205;28;20145;-74
2022/11/17 13:58:47;;;;;;;9.35;4.95;;;;;;;9.04;100.00;98650.00;6194682;28;20551;-74
2022/11/17 14:01:51;;;;;;;3.83;2.25;;;;;;;8.94;100.00;98643.88;6178438;28;20129;-74
2022/11/17 14:05:12;;;;;;;3.30;1.55;;;;;;;9.03;100.00;98637.13;6195945;28;20054;-74
2022/11/17 14:08:23;;;;;;;3.72;2.33;;;;;;;8.98;100.00;98634.88;6195379;28;20050;-73
2022/11/17 14:11:25;;;;;;;7.18;4.32;;;;;;;8.96;100.00;98626.34;6194230;28;20045;-74
2022/11/17 14:14:46;;;;;;;8.02;4.50;;;;;;;8.93;100.00;98629.19;6279885;28;20520;-74
2022/11/17 14:17:49;;;;;;;5.97;3.17;;;;;;;8.94;100.00;98635.25;6178148;28;20494;-74
2022/11/17 14:21:07;;;;;;;9.52;4.63;;;;;;;8.88;100.00;98654.72;6194399;28;20080;-74
2022/11/17 14:24:11;;;;;;;7.60;3.83;;;;;;;8.91;100.00;98653.66;6177504;28;20119;-74
2022/11/17 14:27:35;;;;;;;9.75;4.43;;;;;;;8.85;100.00;98654.94;6194042;28;20068;-74
2022/11/17 14:30:35;;;;;;;9.60;4.70;;;;;;;8.87;100.00;98655.66;6195363;28;20483;-74
2022/11/17 14:33:36;;;;;;;8.40;5.10;;;;;;;8.82;100.00;98653.41;6177807;28;20049;-74
2022/11/17 14:36:38;;;;;;;7.30;4.45;;;;;;;8.88;100.00;98649.53;6279491;28;20147;-74
2022/11/17 14:39:39;;;;;;;5.57;2.88;;;;;;;8.79;100.00;98658.88;6177703;28;20066;-74
2022/11/17 14:42:40;;;;;;;5.65;2.55;;;;;;;8.80;100.00;98665.72;6195099;28;20540;-72
2022/11/17 14:45:41;;;;;;;5.05;2.50;;;;;;;8.84;100.00;98663.72;6177172;28;20088;-72
2022/11/17 14:48:41;;;;;;;3.72;2.17;;;;;;;8.85;100.00;98667.97;6193426;28;20042;-72
2022/11/17 14:51:46;;;;;;;7.18;2.17;;;;;;;8.86;100.00;98673.06;6193356;28;20089;-72
2022/11/17 14:54:47;;;;;;;6.50;2.17;;;;;;;8.77;100.00;98662.50;6194297;28;20047;-72
2022/11/17 14:57:50;;;;;;;7.35;2.53;;;;;;;8.81;100.00;98669.13;6289247;28;20080;-72
2022/11/17 15:00:51;;;;;;;11.57;5.47;;;;;;;8.74;100.00;98665.34;6206173;28;20042;-72
2022/11/17 15:03:52;;;;;;;12.82;7.05;;;;;;;8.72;100.00;98670.66;6192512;28;20054;-72